sensor_id;sensor_type;location;lat;lon;timestamp;temperature;humidity
7876;DHT22;69649;53.712;9.680;2023-05-14T00:01:12;12.40;59.70
7876;DHT22;69649;53.712;9.680;2023-05-14T00:03:38;12.40;59.60
7876;DHT22;69649;53.712;9.680;2023-05-14T00:06:06;12.30;59.80
7876;DHT22;69649;53.712;9.680;2023-05-14T00:08:32;12.40;59.70
7876;DHT22;69649;53.712;9.680;2023-05-14T00:10:58;12.40;59.40
7876;DHT22;69649;53.712;9.680;2023-05-14T00:13:24;12.30;59.70
7876;DHT22;69649;53.712;9.680;2023-05-14T00:15:50;12.30;59.20
7876;DHT22;69649;53.712;9.680;2023-05-14T00:18:16;12.30;59.50
7876;DHT22;69649;53.712;9.680;2023-05-14T00:20:42;12.30;59.70
7876;DHT22;69649;53.712;9.680;2023-05-14T00:23:08;12.30;59.60
7876;DHT22;69649;53.712;9.680;2023-05-14T00:25:34;12.30;59.20
7876;DHT22;69649;53.712;9.680;2023-05-14T00:28:00;12.20;59.70
7876;DHT22;69649;53.712;9.680;2023-05-14T00:30:26;12.10;59.70
7876;DHT22;69649;53.712;9.680;2023-05-14T00:32:52;12.10;60.00
7876;DHT22;69649;53.712;9.680;2023-05-14T00:35:17;12.10;60.10
7876;DHT22;69649;53.712;9.680;2023-05-14T00:37:45;12.00;60.20
7876;DHT22;69649;53.712;9.680;2023-05-14T00:40:30;12.00;59.70
7876;DHT22;69649;53.712;9.680;2023-05-14T00:42:56;12.00;59.80
7876;DHT22;69649;53.712;9.680;2023-05-14T00:45:22;12.00;60.20
7876;DHT22;69649;53.712;9.680;2023-05-14T00:47:48;11.90;60.00
7876;DHT22;69649;53.712;9.680;2023-05-14T00:50:15;11.90;60.20
7876;DHT22;69649;53.712;9.680;2023-05-14T00:52:41;11.90;59.60
7876;DHT22;69649;53.712;9.680;2023-05-14T00:55:08;11.90;59.80
7876;DHT22;69649;53.712;9.680;2023-05-14T00:57:36;11.80;59.70
7876;DHT22;69649;53.712;9.680;2023-05-14T01:00:03;11.70;59.50
7876;DHT22;69649;53.712;9.680;2023-05-14T01:02:29;11.70;60.30
7876;DHT22;69649;53.712;9.680;2023-05-14T01:04:55;11.70;60.60
7876;DHT22;69649;53.712;9.680;2023-05-14T01:07:38;11.60;60.40
7876;DHT22;69649;53.712;9.680;2023-05-14T01:10:10;11.50;60.70
7876;DHT22;69649;53.712;9.680;2023-05-14T01:15:33;11.50;60.80
7876;DHT22;69649;53.712;9.680;2023-05-14T01:18:03;11.40;61.20
7876;DHT22;69649;53.712;9.680;2023-05-14T01:20:30;11.30;61.00
7876;DHT22;69649;53.712;9.680;2023-05-14T01:22:55;11.30;61.20
7876;DHT22;69649;53.712;9.680;2023-05-14T01:25:21;11.20;61.60
7876;DHT22;69649;53.712;9.680;2023-05-14T01:30:39;11.10;61.90
7876;DHT22;69649;53.712;9.680;2023-05-14T01:33:10;11.00;62.10
7876;DHT22;69649;53.712;9.680;2023-05-14T01:35:36;10.90;62.00
7876;DHT22;69649;53.712;9.680;2023-05-14T01:38:05;10.90;62.20
7876;DHT22;69649;53.712;9.680;2023-05-14T01:40:32;10.80;62.40
7876;DHT22;69649;53.712;9.680;2023-05-14T01:42:59;10.70;62.50
7876;DHT22;69649;53.712;9.680;2023-05-14T01:45:26;10.70;62.60
7876;DHT22;69649;53.712;9.680;2023-05-14T01:47:52;10.70;62.50
7876;DHT22;69649;53.712;9.680;2023-05-14T01:50:18;10.60;62.80
7876;DHT22;69649;53.712;9.680;2023-05-14T01:52:44;10.50;63.10
7876;DHT22;69649;53.712;9.680;2023-05-14T01:55:10;10.50;62.70
7876;DHT22;69649;53.712;9.680;2023-05-14T01:57:36;10.50;62.70
7876;DHT22;69649;53.712;9.680;2023-05-14T02:00:02;10.50;63.20
7876;DHT22;69649;53.712;9.680;2023-05-14T02:02:28;10.50;62.30
7876;DHT22;69649;53.712;9.680;2023-05-14T02:04:54;10.50;62.90
7876;DHT22;69649;53.712;9.680;2023-05-14T02:07:20;10.40;63.00
7876;DHT22;69649;53.712;9.680;2023-05-14T02:09:45;10.40;60.90
7876;DHT22;69649;53.712;9.680;2023-05-14T02:12:11;10.40;61.30
7876;DHT22;69649;53.712;9.680;2023-05-14T02:14:37;10.40;62.70
7876;DHT22;69649;53.712;9.680;2023-05-14T02:17:03;10.40;61.70
7876;DHT22;69649;53.712;9.680;2023-05-14T02:19:29;10.40;62.10
7876;DHT22;69649;53.712;9.680;2023-05-14T02:21:55;10.40;62.80
7876;DHT22;69649;53.712;9.680;2023-05-14T02:24:21;10.50;62.90
7876;DHT22;69649;53.712;9.680;2023-05-14T02:26:47;10.40;63.30
7876;DHT22;69649;53.712;9.680;2023-05-14T02:29:13;10.50;62.20
7876;DHT22;69649;53.712;9.680;2023-05-14T02:31:38;10.50;63.00
7876;DHT22;69649;53.712;9.680;2023-05-14T02:34:05;10.40;62.80
7876;DHT22;69649;53.712;9.680;2023-05-14T02:36:33;10.50;63.00
7876;DHT22;69649;53.712;9.680;2023-05-14T02:38:59;10.50;63.00
7876;DHT22;69649;53.712;9.680;2023-05-14T02:41:29;10.50;62.80
7876;DHT22;69649;53.712;9.680;2023-05-14T02:43:55;10.50;63.00
7876;DHT22;69649;53.712;9.680;2023-05-14T02:46:20;10.50;63.00
7876;DHT22;69649;53.712;9.680;2023-05-14T02:48:46;10.50;62.10
7876;DHT22;69649;53.712;9.680;2023-05-14T02:51:12;10.50;63.30
7876;DHT22;69649;53.712;9.680;2023-05-14T02:53:38;10.50;62.80
7876;DHT22;69649;53.712;9.680;2023-05-14T02:56:04;10.50;62.60
7876;DHT22;69649;53.712;9.680;2023-05-14T02:58:30;10.50;63.20
7876;DHT22;69649;53.712;9.680;2023-05-14T03:00:55;10.60;63.00
7876;DHT22;69649;53.712;9.680;2023-05-14T03:03:21;10.50;63.40
7876;DHT22;69649;53.712;9.680;2023-05-14T03:05:47;10.50;63.50
7876;DHT22;69649;53.712;9.680;2023-05-14T03:08:13;10.50;63.40
7876;DHT22;69649;53.712;9.680;2023-05-14T03:10:38;10.50;61.90
7876;DHT22;69649;53.712;9.680;2023-05-14T03:13:05;10.50;62.70
7876;DHT22;69649;53.712;9.680;2023-05-14T03:15:30;10.50;62.90
7876;DHT22;69649;53.712;9.680;2023-05-14T03:17:56;10.50;63.30
7876;DHT22;69649;53.712;9.680;2023-05-14T03:20:23;10.50;63.20
7876;DHT22;69649;53.712;9.680;2023-05-14T03:22:50;10.50;63.60
7876;DHT22;69649;53.712;9.680;2023-05-14T03:25:16;10.40;63.70
7876;DHT22;69649;53.712;9.680;2023-05-14T03:27:42;10.40;63.40
7876;DHT22;69649;53.712;9.680;2023-05-14T03:30:09;10.40;63.60
7876;DHT22;69649;53.712;9.680;2023-05-14T03:32:36;10.40;63.80
7876;DHT22;69649;53.712;9.680;2023-05-14T03:35:02;10.40;63.90
7876;DHT22;69649;53.712;9.680;2023-05-14T03:37:28;10.40;64.10
7876;DHT22;69649;53.712;9.680;2023-05-14T03:39:53;10.30;64.20
7876;DHT22;69649;53.712;9.680;2023-05-14T03:42:27;10.30;63.90
7876;DHT22;69649;53.712;9.680;2023-05-14T03:44:53;10.30;64.10
7876;DHT22;69649;53.712;9.680;2023-05-14T03:47:19;10.30;64.10
7876;DHT22;69649;53.712;9.680;2023-05-14T03:49:44;10.40;63.40
7876;DHT22;69649;53.712;9.680;2023-05-14T03:52:10;10.40;63.70
7876;DHT22;69649;53.712;9.680;2023-05-14T03:54:36;10.40;61.60
7876;DHT22;69649;53.712;9.680;2023-05-14T03:57:03;10.50;63.60
7876;DHT22;69649;53.712;9.680;2023-05-14T03:59:29;10.60;62.90
7876;DHT22;69649;53.712;9.680;2023-05-14T04:01:55;10.60;63.80
7876;DHT22;69649;53.712;9.680;2023-05-14T04:04:21;10.60;63.60
7876;DHT22;69649;53.712;9.680;2023-05-14T04:06:46;10.60;63.60
7876;DHT22;69649;53.712;9.680;2023-05-14T04:09:12;10.70;64.00
7876;DHT22;69649;53.712;9.680;2023-05-14T04:11:38;10.80;64.10
7876;DHT22;69649;53.712;9.680;2023-05-14T04:14:04;10.80;64.30
7876;DHT22;69649;53.712;9.680;2023-05-14T04:16:30;10.80;62.10
7876;DHT22;69649;53.712;9.680;2023-05-14T04:18:55;10.90;64.10
7876;DHT22;69649;53.712;9.680;2023-05-14T04:21:21;10.80;64.60
7876;DHT22;69649;53.712;9.680;2023-05-14T04:23:47;10.90;63.50
7876;DHT22;69649;53.712;9.680;2023-05-14T04:26:13;10.90;64.50
7876;DHT22;69649;53.712;9.680;2023-05-14T04:28:39;10.90;64.10
7876;DHT22;69649;53.712;9.680;2023-05-14T04:31:05;11.00;63.50
7876;DHT22;69649;53.712;9.680;2023-05-14T04:33:31;11.00;63.00
7876;DHT22;69649;53.712;9.680;2023-05-14T04:35:56;11.10;62.60
7876;DHT22;69649;53.712;9.680;2023-05-14T04:38:22;11.20;62.70
7876;DHT22;69649;53.712;9.680;2023-05-14T04:40:48;11.30;62.70
7876;DHT22;69649;53.712;9.680;2023-05-14T04:43:13;11.40;62.80
7876;DHT22;69649;53.712;9.680;2023-05-14T04:45:39;11.40;61.80
7876;DHT22;69649;53.712;9.680;2023-05-14T04:48:05;11.50;62.00
7876;DHT22;69649;53.712;9.680;2023-05-14T04:50:32;11.50;60.40
7876;DHT22;69649;53.712;9.680;2023-05-14T04:52:59;11.70;59.80
7876;DHT22;69649;53.712;9.680;2023-05-14T04:55:25;11.70;61.60
7876;DHT22;69649;53.712;9.680;2023-05-14T04:57:51;11.90;59.70
7876;DHT22;69649;53.712;9.680;2023-05-14T05:00:17;11.90;60.90
7876;DHT22;69649;53.712;9.680;2023-05-14T05:02:43;12.10;60.90
7876;DHT22;69649;53.712;9.680;2023-05-14T05:05:09;12.20;60.30
7876;DHT22;69649;53.712;9.680;2023-05-14T05:07:35;12.30;60.20
7876;DHT22;69649;53.712;9.680;2023-05-14T05:10:01;12.40;60.10
7876;DHT22;69649;53.712;9.680;2023-05-14T05:12:27;12.50;60.70
7876;DHT22;69649;53.712;9.680;2023-05-14T05:14:56;12.50;59.80
7876;DHT22;69649;53.712;9.680;2023-05-14T05:17:23;12.70;59.60
7876;DHT22;69649;53.712;9.680;2023-05-14T05:19:49;12.80;59.10
7876;DHT22;69649;53.712;9.680;2023-05-14T05:22:15;12.90;59.70
7876;DHT22;69649;53.712;9.680;2023-05-14T05:24:41;13.00;59.70
7876;DHT22;69649;53.712;9.680;2023-05-14T05:27:07;13.10;59.10
7876;DHT22;69649;53.712;9.680;2023-05-14T05:29:33;13.20;59.80
7876;DHT22;69649;53.712;9.680;2023-05-14T05:31:59;13.30;58.50
7876;DHT22;69649;53.712;9.680;2023-05-14T05:34:26;13.50;58.60
7876;DHT22;69649;53.712;9.680;2023-05-14T05:36:52;13.50;59.30
7876;DHT22;69649;53.712;9.680;2023-05-14T05:39:17;13.70;57.90
7876;DHT22;69649;53.712;9.680;2023-05-14T05:41:43;13.80;59.00
7876;DHT22;69649;53.712;9.680;2023-05-14T05:44:09;14.00;58.80
7876;DHT22;69649;53.712;9.680;2023-05-14T05:46:35;14.40;58.40
7876;DHT22;69649;53.712;9.680;2023-05-14T05:49:00;14.50;58.20
7876;DHT22;69649;53.712;9.680;2023-05-14T05:51:26;14.50;57.80
7876;DHT22;69649;53.712;9.680;2023-05-14T05:53:52;14.40;57.80
7876;DHT22;69649;53.712;9.680;2023-05-14T05:56:18;14.50;57.70
7876;DHT22;69649;53.712;9.680;2023-05-14T05:58:43;14.60;57.80
7876;DHT22;69649;53.712;9.680;2023-05-14T06:01:09;14.70;57.30
7876;DHT22;69649;53.712;9.680;2023-05-14T06:03:35;14.70;57.70
7876;DHT22;69649;53.712;9.680;2023-05-14T06:06:01;14.80;57.70
7876;DHT22;69649;53.712;9.680;2023-05-14T06:08:27;14.90;57.40
7876;DHT22;69649;53.712;9.680;2023-05-14T06:10:53;15.00;57.10
7876;DHT22;69649;53.712;9.680;2023-05-14T06:13:19;15.30;57.30
7876;DHT22;69649;53.712;9.680;2023-05-14T06:15:44;15.40;56.50
7876;DHT22;69649;53.712;9.680;2023-05-14T06:18:10;15.40;57.00
7876;DHT22;69649;53.712;9.680;2023-05-14T06:20:36;15.60;56.70
7876;DHT22;69649;53.712;9.680;2023-05-14T06:23:02;15.60;56.30
7876;DHT22;69649;53.712;9.680;2023-05-14T06:25:27;15.80;56.10
7876;DHT22;69649;53.712;9.680;2023-05-14T06:27:53;16.00;56.20
7876;DHT22;69649;53.712;9.680;2023-05-14T06:30:20;16.10;56.10
7876;DHT22;69649;53.712;9.680;2023-05-14T06:32:45;16.40;55.70
7876;DHT22;69649;53.712;9.680;2023-05-14T06:35:11;16.60;55.90
7876;DHT22;69649;53.712;9.680;2023-05-14T06:37:37;16.70;55.30
7876;DHT22;69649;53.712;9.680;2023-05-14T06:40:03;16.90;54.80
7876;DHT22;69649;53.712;9.680;2023-05-14T06:42:29;16.90;54.50
7876;DHT22;69649;53.712;9.680;2023-05-14T06:44:55;17.10;54.60
7876;DHT22;69649;53.712;9.680;2023-05-14T06:47:21;17.20;53.60
7876;DHT22;69649;53.712;9.680;2023-05-14T06:49:47;17.20;53.90
7876;DHT22;69649;53.712;9.680;2023-05-14T06:52:13;17.50;54.10
7876;DHT22;69649;53.712;9.680;2023-05-14T06:54:38;17.70;54.40
7876;DHT22;69649;53.712;9.680;2023-05-14T06:57:04;17.90;53.70
7876;DHT22;69649;53.712;9.680;2023-05-14T06:59:30;18.10;53.50
7876;DHT22;69649;53.712;9.680;2023-05-14T07:01:56;18.30;53.10
7876;DHT22;69649;53.712;9.680;2023-05-14T07:04:22;18.50;53.20
7876;DHT22;69649;53.712;9.680;2023-05-14T07:06:47;18.50;53.20
7876;DHT22;69649;53.712;9.680;2023-05-14T07:09:13;18.70;52.80
7876;DHT22;69649;53.712;9.680;2023-05-14T07:11:39;18.80;51.70
7876;DHT22;69649;53.712;9.680;2023-05-14T07:14:05;18.80;52.20
7876;DHT22;69649;53.712;9.680;2023-05-14T07:16:30;18.90;51.50
7876;DHT22;69649;53.712;9.680;2023-05-14T07:18:56;19.10;51.40
7876;DHT22;69649;53.712;9.680;2023-05-14T07:21:22;19.10;51.10
7876;DHT22;69649;53.712;9.680;2023-05-14T07:23:48;19.00;51.70
7876;DHT22;69649;53.712;9.680;2023-05-14T07:26:13;19.20;51.70
7876;DHT22;69649;53.712;9.680;2023-05-14T07:28:39;19.20;50.50
7876;DHT22;69649;53.712;9.680;2023-05-14T07:31:05;19.30;50.90
7876;DHT22;69649;53.712;9.680;2023-05-14T07:33:35;19.40;50.40
7876;DHT22;69649;53.712;9.680;2023-05-14T07:36:01;19.50;50.70
7876;DHT22;69649;53.712;9.680;2023-05-14T07:38:27;19.60;49.80
7876;DHT22;69649;53.712;9.680;2023-05-14T07:40:52;19.70;49.70
7876;DHT22;69649;53.712;9.680;2023-05-14T07:43:18;19.80;49.40
7876;DHT22;69649;53.712;9.680;2023-05-14T07:45:44;19.80;49.80
7876;DHT22;69649;53.712;9.680;2023-05-14T07:48:10;19.80;49.40
7876;DHT22;69649;53.712;9.680;2023-05-14T07:50:36;19.90;49.20
7876;DHT22;69649;53.712;9.680;2023-05-14T07:53:02;20.00;49.00
7876;DHT22;69649;53.712;9.680;2023-05-14T07:55:28;20.10;48.80
7876;DHT22;69649;53.712;9.680;2023-05-14T07:57:54;20.20;48.30
7876;DHT22;69649;53.712;9.680;2023-05-14T08:00:20;20.30;48.60
7876;DHT22;69649;53.712;9.680;2023-05-14T08:02:46;20.50;48.30
7876;DHT22;69649;53.712;9.680;2023-05-14T08:05:13;20.50;47.70
7876;DHT22;69649;53.712;9.680;2023-05-14T08:07:39;20.60;47.20
7876;DHT22;69649;53.712;9.680;2023-05-14T08:10:06;20.60;47.00
7876;DHT22;69649;53.712;9.680;2023-05-14T08:12:32;20.70;46.90
7876;DHT22;69649;53.712;9.680;2023-05-14T08:14:58;20.70;47.20
7876;DHT22;69649;53.712;9.680;2023-05-14T08:17:24;20.70;46.50
7876;DHT22;69649;53.712;9.680;2023-05-14T08:19:49;20.70;46.60
7876;DHT22;69649;53.712;9.680;2023-05-14T08:22:15;20.80;45.60
7876;DHT22;69649;53.712;9.680;2023-05-14T08:24:41;20.80;46.20
7876;DHT22;69649;53.712;9.680;2023-05-14T08:27:08;20.80;45.60
7876;DHT22;69649;53.712;9.680;2023-05-14T08:29:34;20.90;45.30
7876;DHT22;69649;53.712;9.680;2023-05-14T08:31:59;21.00;45.10
7876;DHT22;69649;53.712;9.680;2023-05-14T08:34:25;21.20;44.80
7876;DHT22;69649;53.712;9.680;2023-05-14T08:36:52;21.40;44.90
7876;DHT22;69649;53.712;9.680;2023-05-14T08:39:18;21.50;44.10
7876;DHT22;69649;53.712;9.680;2023-05-14T08:41:44;21.80;44.70
7876;DHT22;69649;53.712;9.680;2023-05-14T08:46:41;22.10;44.40
7876;DHT22;69649;53.712;9.680;2023-05-14T08:51:54;22.20;43.50
7876;DHT22;69649;53.712;9.680;2023-05-14T08:54:20;22.20;43.50
7876;DHT22;69649;53.712;9.680;2023-05-14T08:56:50;22.20;43.80
7876;DHT22;69649;53.712;9.680;2023-05-14T08:59:16;22.50;44.40
7876;DHT22;69649;53.712;9.680;2023-05-14T09:01:47;22.60;42.70
7876;DHT22;69649;53.712;9.680;2023-05-14T09:04:14;22.50;43.20
7876;DHT22;69649;53.712;9.680;2023-05-14T09:06:42;22.70;42.80
7876;DHT22;69649;53.712;9.680;2023-05-14T09:09:08;22.70;42.60
7876;DHT22;69649;53.712;9.680;2023-05-14T09:11:44;22.80;42.80
7876;DHT22;69649;53.712;9.680;2023-05-14T09:14:07;22.70;42.90
7876;DHT22;69649;53.712;9.680;2023-05-14T09:16:34;22.60;42.20
7876;DHT22;69649;53.712;9.680;2023-05-14T09:19:02;22.60;41.60
7876;DHT22;69649;53.712;9.680;2023-05-14T09:21:29;22.70;42.70
7876;DHT22;69649;53.712;9.680;2023-05-14T09:23:56;22.90;44.20
7876;DHT22;69649;53.712;9.680;2023-05-14T09:26:25;23.10;43.40
7876;DHT22;69649;53.712;9.680;2023-05-14T09:28:55;23.20;43.30
7876;DHT22;69649;53.712;9.680;2023-05-14T09:31:22;23.10;42.70
7876;DHT22;69649;53.712;9.680;2023-05-14T09:33:51;23.20;42.80
7876;DHT22;69649;53.712;9.680;2023-05-14T09:36:18;23.30;42.80
7876;DHT22;69649;53.712;9.680;2023-05-14T09:38:44;23.50;42.20
7876;DHT22;69649;53.712;9.680;2023-05-14T09:41:10;23.30;41.90
7876;DHT22;69649;53.712;9.680;2023-05-14T09:43:36;23.30;42.40
7876;DHT22;69649;53.712;9.680;2023-05-14T09:46:02;23.20;41.30
7876;DHT22;69649;53.712;9.680;2023-05-14T09:48:28;23.10;41.60
7876;DHT22;69649;53.712;9.680;2023-05-14T09:50:54;23.00;42.30
7876;DHT22;69649;53.712;9.680;2023-05-14T09:53:19;23.40;41.80
7876;DHT22;69649;53.712;9.680;2023-05-14T09:55:45;23.40;40.50
7876;DHT22;69649;53.712;9.680;2023-05-14T09:58:11;23.40;40.70
7876;DHT22;69649;53.712;9.680;2023-05-14T10:00:44;23.40;40.80
7876;DHT22;69649;53.712;9.680;2023-05-14T10:03:13;23.30;41.40
7876;DHT22;69649;53.712;9.680;2023-05-14T10:05:40;23.20;41.40
7876;DHT22;69649;53.712;9.680;2023-05-14T10:08:29;23.20;40.90
7876;DHT22;69649;53.712;9.680;2023-05-14T10:10:36;23.20;41.50
7876;DHT22;69649;53.712;9.680;2023-05-14T10:13:10;23.20;41.70
7876;DHT22;69649;53.712;9.680;2023-05-14T10:15:55;23.10;40.90
7876;DHT22;69649;53.712;9.680;2023-05-14T10:18:22;23.00;41.10
7876;DHT22;69649;53.712;9.680;2023-05-14T10:21:05;23.30;40.00
7876;DHT22;69649;53.712;9.680;2023-05-14T10:23:33;23.20;40.10
7876;DHT22;69649;53.712;9.680;2023-05-14T10:26:01;23.00;39.90
7876;DHT22;69649;53.712;9.680;2023-05-14T10:28:27;23.10;39.90
7876;DHT22;69649;53.712;9.680;2023-05-14T10:30:53;23.40;40.70
7876;DHT22;69649;53.712;9.680;2023-05-14T10:33:19;23.70;39.90
7876;DHT22;69649;53.712;9.680;2023-05-14T10:36:06;23.90;37.80
7876;DHT22;69649;53.712;9.680;2023-05-14T10:38:33;24.00;38.90
7876;DHT22;69649;53.712;9.680;2023-05-14T10:41:04;24.20;38.60
7876;DHT22;69649;53.712;9.680;2023-05-14T10:43:38;24.40;38.60
7876;DHT22;69649;53.712;9.680;2023-05-14T10:46:05;25.00;38.00
7876;DHT22;69649;53.712;9.680;2023-05-14T10:48:31;25.20;35.90
7876;DHT22;69649;53.712;9.680;2023-05-14T10:50:58;25.20;37.50
7876;DHT22;69649;53.712;9.680;2023-05-14T10:53:36;25.30;36.70
7876;DHT22;69649;53.712;9.680;2023-05-14T10:58:35;25.20;36.80
7876;DHT22;69649;53.712;9.680;2023-05-14T11:01:02;24.80;37.30
7876;DHT22;69649;53.712;9.680;2023-05-14T11:03:31;24.70;37.50
7876;DHT22;69649;53.712;9.680;2023-05-14T11:05:58;24.40;37.90
7876;DHT22;69649;53.712;9.680;2023-05-14T11:08:26;24.50;38.00
7876;DHT22;69649;53.712;9.680;2023-05-14T11:10:53;24.40;37.30
7876;DHT22;69649;53.712;9.680;2023-05-14T11:13:20;24.40;38.30
7876;DHT22;69649;53.712;9.680;2023-05-14T11:15:46;24.20;38.00
7876;DHT22;69649;53.712;9.680;2023-05-14T11:21:01;24.20;39.10
7876;DHT22;69649;53.712;9.680;2023-05-14T11:23:28;24.50;38.40
7876;DHT22;69649;53.712;9.680;2023-05-14T11:25:55;24.60;36.90
7876;DHT22;69649;53.712;9.680;2023-05-14T11:28:22;24.20;37.70
7876;DHT22;69649;53.712;9.680;2023-05-14T11:30:49;24.20;40.30
7876;DHT22;69649;53.712;9.680;2023-05-14T11:33:15;24.40;39.50
7876;DHT22;69649;53.712;9.680;2023-05-14T11:35:42;24.70;38.10
7876;DHT22;69649;53.712;9.680;2023-05-14T11:38:16;24.90;38.00
7876;DHT22;69649;53.712;9.680;2023-05-14T11:40:51;25.10;37.70
7876;DHT22;69649;53.712;9.680;2023-05-14T11:43:19;25.20;37.50
7876;DHT22;69649;53.712;9.680;2023-05-14T11:45:52;25.50;36.50
7876;DHT22;69649;53.712;9.680;2023-05-14T11:48:20;25.20;37.30
7876;DHT22;69649;53.712;9.680;2023-05-14T11:50:47;25.40;38.40
7876;DHT22;69649;53.712;9.680;2023-05-14T11:53:18;25.50;37.10
7876;DHT22;69649;53.712;9.680;2023-05-14T11:55:51;25.00;37.80
7876;DHT22;69649;53.712;9.680;2023-05-14T11:58:19;24.40;36.70
7876;DHT22;69649;53.712;9.680;2023-05-14T12:00:45;23.80;37.90
7876;DHT22;69649;53.712;9.680;2023-05-14T12:03:18;23.60;38.10
7876;DHT22;69649;53.712;9.680;2023-05-14T12:05:59;23.60;38.40
7876;DHT22;69649;53.712;9.680;2023-05-14T12:08:27;23.70;38.40
7876;DHT22;69649;53.712;9.680;2023-05-14T12:10:53;24.20;38.40
7876;DHT22;69649;53.712;9.680;2023-05-14T12:13:19;24.60;38.30
7876;DHT22;69649;53.712;9.680;2023-05-14T12:15:53;25.00;37.70
7876;DHT22;69649;53.712;9.680;2023-05-14T12:18:13;25.30;37.00
7876;DHT22;69649;53.712;9.680;2023-05-14T12:20:45;25.60;36.30
7876;DHT22;69649;53.712;9.680;2023-05-14T12:23:09;25.30;37.20
7876;DHT22;69649;53.712;9.680;2023-05-14T12:25:37;25.60;37.50
7876;DHT22;69649;53.712;9.680;2023-05-14T12:28:18;25.70;37.70
7876;DHT22;69649;53.712;9.680;2023-05-14T12:30:41;25.90;36.50
7876;DHT22;69649;53.712;9.680;2023-05-14T12:33:07;25.80;37.40
7876;DHT22;69649;53.712;9.680;2023-05-14T12:35:34;25.80;37.00
7876;DHT22;69649;53.712;9.680;2023-05-14T12:38:02;26.00;37.50
7876;DHT22;69649;53.712;9.680;2023-05-14T12:40:28;26.00;37.10
7876;DHT22;69649;53.712;9.680;2023-05-14T12:42:55;25.90;37.30
7876;DHT22;69649;53.712;9.680;2023-05-14T12:45:21;26.00;36.60
7876;DHT22;69649;53.712;9.680;2023-05-14T12:47:47;25.90;36.90
7876;DHT22;69649;53.712;9.680;2023-05-14T12:50:12;25.80;36.90
7876;DHT22;69649;53.712;9.680;2023-05-14T12:52:38;25.60;37.00
7876;DHT22;69649;53.712;9.680;2023-05-14T12:55:09;25.30;37.00
7876;DHT22;69649;53.712;9.680;2023-05-14T12:57:33;25.30;37.20
7876;DHT22;69649;53.712;9.680;2023-05-14T13:00:00;25.20;37.20
7876;DHT22;69649;53.712;9.680;2023-05-14T13:02:26;25.40;37.10
7876;DHT22;69649;53.712;9.680;2023-05-14T13:04:52;25.50;37.10
7876;DHT22;69649;53.712;9.680;2023-05-14T13:07:17;25.80;37.60
7876;DHT22;69649;53.712;9.680;2023-05-14T13:09:43;25.80;37.50
7876;DHT22;69649;53.712;9.680;2023-05-14T13:12:09;26.40;36.20
7876;DHT22;69649;53.712;9.680;2023-05-14T13:14:34;26.90;36.30
7876;DHT22;69649;53.712;9.680;2023-05-14T13:17:01;27.30;36.00
7876;DHT22;69649;53.712;9.680;2023-05-14T13:19:27;27.20;34.30
7876;DHT22;69649;53.712;9.680;2023-05-14T13:21:52;27.10;36.70
7876;DHT22;69649;53.712;9.680;2023-05-14T13:24:18;27.20;36.00
7876;DHT22;69649;53.712;9.680;2023-05-14T13:26:44;27.50;35.20
7876;DHT22;69649;53.712;9.680;2023-05-14T13:29:10;27.70;35.90
7876;DHT22;69649;53.712;9.680;2023-05-14T13:31:35;27.80;34.30
7876;DHT22;69649;53.712;9.680;2023-05-14T13:34:01;27.50;35.00
7876;DHT22;69649;53.712;9.680;2023-05-14T13:36:27;27.40;35.30
7876;DHT22;69649;53.712;9.680;2023-05-14T13:38:53;27.50;35.00
7876;DHT22;69649;53.712;9.680;2023-05-14T13:41:19;27.80;35.80
7876;DHT22;69649;53.712;9.680;2023-05-14T13:43:46;28.10;36.10
7876;DHT22;69649;53.712;9.680;2023-05-14T13:46:11;27.80;35.60
7876;DHT22;69649;53.712;9.680;2023-05-14T13:48:37;27.40;35.50
7876;DHT22;69649;53.712;9.680;2023-05-14T13:51:03;27.00;36.20
7876;DHT22;69649;53.712;9.680;2023-05-14T13:53:29;26.90;36.70
7876;DHT22;69649;53.712;9.680;2023-05-14T13:55:54;26.40;36.60
7876;DHT22;69649;53.712;9.680;2023-05-14T13:58:24;26.10;37.80
7876;DHT22;69649;53.712;9.680;2023-05-14T14:00:50;26.10;38.00
7876;DHT22;69649;53.712;9.680;2023-05-14T14:03:16;26.40;37.80
7876;DHT22;69649;53.712;9.680;2023-05-14T14:05:42;26.40;37.60
7876;DHT22;69649;53.712;9.680;2023-05-14T14:08:08;26.10;37.90
7876;DHT22;69649;53.712;9.680;2023-05-14T14:10:34;26.00;37.80
7876;DHT22;69649;53.712;9.680;2023-05-14T14:13:01;25.80;37.40
7876;DHT22;69649;53.712;9.680;2023-05-14T14:15:26;25.80;38.00
7876;DHT22;69649;53.712;9.680;2023-05-14T14:17:54;26.10;38.00
7876;DHT22;69649;53.712;9.680;2023-05-14T14:20:20;26.10;37.00
7876;DHT22;69649;53.712;9.680;2023-05-14T14:22:46;26.00;37.00
7876;DHT22;69649;53.712;9.680;2023-05-14T14:25:12;25.50;36.30
7876;DHT22;69649;53.712;9.680;2023-05-14T14:27:38;25.00;36.90
7876;DHT22;69649;53.712;9.680;2023-05-14T14:30:07;24.80;37.50
7876;DHT22;69649;53.712;9.680;2023-05-14T14:32:34;24.60;37.50
7876;DHT22;69649;53.712;9.680;2023-05-14T14:35:00;24.40;37.40
7876;DHT22;69649;53.712;9.680;2023-05-14T14:37:26;24.90;36.80
7876;DHT22;69649;53.712;9.680;2023-05-14T14:39:51;25.60;36.00
7876;DHT22;69649;53.712;9.680;2023-05-14T14:42:17;26.30;34.80
7876;DHT22;69649;53.712;9.680;2023-05-14T14:44:43;26.80;34.90
7876;DHT22;69649;53.712;9.680;2023-05-14T14:47:09;27.10;34.80
7876;DHT22;69649;53.712;9.680;2023-05-14T14:49:35;28.10;34.40
7876;DHT22;69649;53.712;9.680;2023-05-14T14:52:01;29.10;33.50
7876;DHT22;69649;53.712;9.680;2023-05-14T14:54:26;29.70;33.40
7876;DHT22;69649;53.712;9.680;2023-05-14T14:56:52;30.70;34.10
7876;DHT22;69649;53.712;9.680;2023-05-14T14:59:24;31.40;32.40
7876;DHT22;69649;53.712;9.680;2023-05-14T15:01:50;32.10;31.50
7876;DHT22;69649;53.712;9.680;2023-05-14T15:04:16;33.00;31.20
7876;DHT22;69649;53.712;9.680;2023-05-14T15:06:41;34.20;31.70
7876;DHT22;69649;53.712;9.680;2023-05-14T15:09:07;34.40;30.80
7876;DHT22;69649;53.712;9.680;2023-05-14T15:11:33;34.50;30.90
7876;DHT22;69649;53.712;9.680;2023-05-14T15:13:59;34.60;30.70
7876;DHT22;69649;53.712;9.680;2023-05-14T15:16:28;34.30;30.30
7876;DHT22;69649;53.712;9.680;2023-05-14T15:18:53;34.90;30.20
7876;DHT22;69649;53.712;9.680;2023-05-14T15:21:20;35.00;30.20
7876;DHT22;69649;53.712;9.680;2023-05-14T15:23:45;34.70;29.70
7876;DHT22;69649;53.712;9.680;2023-05-14T15:26:11;34.10;30.90
7876;DHT22;69649;53.712;9.680;2023-05-14T15:28:37;34.00;31.10
7876;DHT22;69649;53.712;9.680;2023-05-14T15:31:04;34.50;30.60
7876;DHT22;69649;53.712;9.680;2023-05-14T15:33:30;34.40;30.50
7876;DHT22;69649;53.712;9.680;2023-05-14T15:35:56;33.00;30.70
7876;DHT22;69649;53.712;9.680;2023-05-14T15:38:22;32.90;32.20
7876;DHT22;69649;53.712;9.680;2023-05-14T15:40:47;33.20;31.60
7876;DHT22;69649;53.712;9.680;2023-05-14T15:43:15;33.30;32.00
7876;DHT22;69649;53.712;9.680;2023-05-14T15:45:45;33.10;31.00
7876;DHT22;69649;53.712;9.680;2023-05-14T15:48:11;32.40;31.90
7876;DHT22;69649;53.712;9.680;2023-05-14T15:50:36;32.10;31.60
7876;DHT22;69649;53.712;9.680;2023-05-14T15:53:02;32.20;31.40
7876;DHT22;69649;53.712;9.680;2023-05-14T15:55:28;32.20;31.50
7876;DHT22;69649;53.712;9.680;2023-05-14T15:57:54;33.00;30.90